메인 페이지
METAR-TAF:

METAR-TAF

공항 :

애빌린, 텍사스, 미국

위도: 32-24-37N, 경도: 099-40-54W, 고도: 545m

현재 날씨관측

예보는 28분 전, 00:52시(UTC)에 발표되었습니다.
남남서5kt
온도 28°C
습도 28%
기압 1003 hPa
시정: 16.1km
고도 11000ft 상공 구름 많음

METAR: KABI 210052Z 20005KT 10SM BKN110 28/08 A2961 RMK AO2 SLP005 T02780078

시각: 20:20 (01:20 UTC)

예보

예보는 1 시간 41분 전, 23:39시(UTC)에 발표되었습니다.
예보 대상 시간: 21일 00시부터 21일 24시까지 (UTC)
남서15kt, 순간 최대 풍속 22kt
시정: 10km
고도 25000ft 상공 구름 조금
21일 0300시부터 (UTC)
11kt, 순간 최대 풍속 18kt
시정: 10km
고도 5000ft 상공 구름 보통, 적란운.
시계 내 뇌우
21일 0500시부터 (UTC)
북북서11kt
시정: 10km
고도 25000ft 상공 구름 조금

TAF: KABI 202339Z 2100/2124 22015G22KT P6SM FEW250 FM210300 27011G18KT P6SM VCTS SCT050CB FM210500 33011KT P6SM FEW250

4,000개 이상의 공항 관측 자료 및 예보 (METAR 및 TAF 보고).

지도상에서 검색 가능한 기상관측소가 노란 점과 빨간 점으로 표시되어 있습니다.

기상관측소 명을 보려면 표시 위로 마우스를 이동하세요.

날씨 관측과 예보를 보려면 클릭하세요.

지도 변경 : 확대하려면 엑스 표시가 있는 녹색 버튼, 축소하려면 빼기 표시가 있는 녹색 버튼, 다음 페이지의 지도를 보려면 녹색 화살표를 클릭하세요.


METAR-TAF: